Swain, NY (14884)

2:19 PM EST on December 26, 2014 (GMT -0500)
Dalton | Change Station
CLOSE
Current Station
Personal Weather Station
Location: Dalton, NY
Elevation: 1913 ft
Nearby Weather Stations

Elev 1913 ft 42.51 °N, 77.92 °W | Updated 43 seconds ago

Clear
Clear
42.7 °F
Feels Like 43 °F
N
1.0
Wind Variable Wind from West
Gusts 6.0 mph

Today
High -- | Low -- °F
--% Chance of Precip.
Yesterday
High -- | Low -- °F
Precip. -- in
7:39 AM 4:44 PM
Waxing Crescent, 28% visible
Pressure 30.18 in
Visibility 10.0 miles
Clouds Clear
Windchill 43 °F
Dew Point 31 °F
Humidity 64%
Rainfall 0.00 in
Snow Depth Not available.
UV 1 out of 12
Pollen .10 out of 12
Air Quality Not available.
Flu Activity Not available.
METAR KDSV 261854Z AUTO 20008KT 180V240 10SM CLR 08/M03 A3014 RMK AO2 SLP220 T00831028

More Conditions Fewer Conditions

Pressure 30.18 in
Visibility 10.0 miles
Clouds Clear
Windchill 43 °F
Dew Point 31 °F
Humidity 64%
Rainfall 0.00 in
Snow Depth Not available.
UV 1 out of 12
Pollen .10 out of 12
Air Quality Not available.
Flu Activity Not available.
METAR KDSV 261854Z AUTO 20008KT 180V240 10SM CLR 08/M03 A3014 RMK AO2 SLP220 T00831028

More Conditions Fewer Conditions

10-Day Weather Forecast

Almanac

Astronomy

Dec. 26, 2014 Rise Set
Actual Time
Civil Twilight
Nautical Twilight
Astronomical Twilight
Moon
Length of Visible Light
Length of Day
Tomorrow will be .
, % of the Moon is Illuminated

Today's Extremes

State Highs State Lows

Community

WunderPhotos

Upload Photos

1,780,671 photos uploaded!

WunderBlogs® & News

Nearby

Air Quality

  Air Quality AQ Index Pollutant
Not available.

Snow Depth

Station Depth Elevation

Earthquake Activity

City Distance Mag. Time & Date
Minimum magnitude displayed is 2.5.

Coastal Water Temperatures

Place Temperature

Nearby Weather Stations